Time;durP1;ratioP1;P1;durP2;ratioP2;P2;SDS_P1;SDS_P2;PMS_P1;PMS_P2;Temp;Humidity;BMP_temperature;BMP_pressure;BME280_temperature;BME280_humidity;BME280_pressure;Samples;Min_cycle;Max_cycle;Signal;HPM_P1;HPM_P2
2021/05/13 00:01:24;;;;;;;16.83;7.33;;;;;;;;;;4969415;28;37323;-74
2021/05/13 00:03:52;;;;;;;18.30;7.03;;;;;;;;;;4973284;28;37994;-75
2021/05/13 00:06:18;;;;;;;16.43;7.20;;;;;;;;;;4972840;28;35760;-75
2021/05/13 00:08:44;;;;;;;15.03;7.20;;;;;;;;;;4991122;28;38975;-74
2021/05/13 00:11:11;;;;;;;19.87;7.00;;;;;;;;;;4973733;28;37951;-75
2021/05/13 00:13:39;;;;;;;15.07;8.27;;;;;;;;;;4974348;28;37136;-75
2021/05/13 00:16:06;;;;;;;18.47;8.27;;;;;;;;;;4990829;28;37203;-75
2021/05/13 00:18:34;;;;;;;16.87;7.13;;;;;;;;;;4991529;28;39272;-75
2021/05/13 00:21:00;;;;;;;16.17;7.00;;;;;;;;;;4974802;28;37884;-75
2021/05/13 00:23:27;;;;;;;20.17;7.90;;;;;;;;;;4991148;28;47875;-75
2021/05/13 00:25:53;;;;;;;19.00;7.47;;;;;;;;;;4999414;28;37951;-74
2021/05/13 00:28:24;;;;;;;19.80;7.40;;;;;;;;;;5011351;28;39084;-75
2021/05/13 00:30:50;;;;;;;15.80;7.30;;;;;;;;;;4991894;28;38746;-75
2021/05/13 00:33:16;;;;;;;17.63;7.27;;;;;;;;;;4995725;28;37250;-75
2021/05/13 00:35:43;;;;;;;12.03;6.03;;;;;;;;;;4994335;28;37659;-75
2021/05/13 00:38:09;;;;;;;22.93;7.73;;;;;;;;;;4992820;28;38162;-76
2021/05/13 00:40:36;;;;;;;18.50;7.50;;;;;;;;;;5010224;28;38222;-75
2021/05/13 00:43:02;;;;;;;14.73;6.93;;;;;;;;;;5012148;28;38255;-75
2021/05/13 00:45:29;;;;;;;15.13;7.00;;;;;;;;;;5011693;28;47598;-75
2021/05/13 00:50:26;;;;;;;17.17;7.67;;;;;;;;;;4992123;28;39666;-76
2021/05/13 00:52:52;;;;;;;10.03;5.87;;;;;;;;;;4996118;28;38328;-76
2021/05/13 00:55:20;;;;;;;16.73;7.47;;;;;;;;;;5006770;28;37307;-76
2021/05/13 00:57:49;;;;;;;16.20;7.17;;;;;;;;;;5011616;28;37679;-76
2021/05/13 01:00:38;;;;;;;15.33;8.00;;;;;;;;;;5010544;28;37515;-76
2021/05/13 01:03:05;;;;;;;18.70;8.70;;;;;;;;;;5012263;28;39300;-76
2021/05/13 01:05:32;;;;;;;16.50;9.20;;;;;;;;;;5012437;28;39164;-76
2021/05/13 01:07:59;;;;;;;15.77;7.97;;;;;;;;;;5013358;28;40341;-76
2021/05/13 01:10:26;;;;;;;17.10;7.50;;;;;;;;;;5012738;28;39427;-76
2021/05/13 01:12:54;;;;;;;16.47;7.87;;;;;;;;;;5010392;28;39102;-76
2021/05/13 01:15:24;;;;;;;20.07;7.80;;;;;;;;;;5008562;28;37176;-76
2021/05/13 01:18:25;;;;;;;14.63;8.33;;;;;;;;;;5010656;28;39038;-76
2021/05/13 01:20:43;;;;;;;;;;;;;;;;;;5006394;28;48704;-76
2021/05/13 01:23:13;;;;;;;16.87;8.30;;;;;;;;;;4993188;28;37942;-76
2021/05/13 01:25:54;;;;;;;17.13;8.53;;;;;;;;;;5010465;28;36871;-76
2021/05/13 01:28:21;;;;;;;17.93;9.20;;;;;;;;;;4992874;28;40798;-76
2021/05/13 01:30:50;;;;;;;15.47;8.50;;;;;;;;;;5010152;28;37527;-77
2021/05/13 01:33:18;;;;;;;19.90;8.93;;;;;;;;;;5008183;28;38984;-76
2021/05/13 01:35:44;;;;;;;25.90;10.40;;;;;;;;;;5010360;28;37255;-77
2021/05/13 01:38:12;;;;;;;16.20;8.57;;;;;;;;;;5011294;28;39928;-76
2021/05/13 01:40:39;;;;;;;15.03;8.33;;;;;;;;;;5010081;28;39520;-77
2021/05/13 01:43:05;;;;;;;19.80;9.90;;;;;;;;;;5011979;28;39142;-76
2021/05/13 01:45:32;;;;;;;11.70;7.40;;;;;;;;;;5008376;28;37276;-77
2021/05/13 01:48:05;;;;;;;19.40;11.00;;;;;;;;;;5010581;28;39268;-76
2021/05/13 01:50:33;;;;;;;16.33;8.43;;;;;;;;;;5009828;28;48273;-76
2021/05/13 01:53:00;;;;;;;13.07;9.13;;;;;;;;;;4987040;28;39092;-76
2021/05/13 01:55:26;;;;;;;14.90;9.33;;;;;;;;;;4989929;28;37214;-76
2021/05/13 01:57:53;;;;;;;15.13;9.87;;;;;;;;;;4973298;28;40379;-76
2021/05/13 02:00:20;;;;;;;23.60;12.07;;;;;;;;;;4971500;28;38847;-76
2021/05/13 02:02:48;;;;;;;18.33;12.60;;;;;;;;;;4998487;28;37952;-76
2021/05/13 02:05:16;;;;;;;23.10;11.57;;;;;;;;;;5008757;28;38741;-77
2021/05/13 02:07:42;;;;;;;22.83;11.57;;;;;;;;;;5010292;28;39686;-76
2021/05/13 02:10:10;;;;;;;16.90;10.37;;;;;;;;;;4990671;28;38908;-75
2021/05/13 02:12:38;;;;;;;26.13;14.43;;;;;;;;;;4991930;28;38988;-76
2021/05/13 02:15:06;;;;;;;24.20;13.73;;;;;;;;;;4990271;28;37833;-76
2021/05/13 02:17:32;;;;;;;28.47;14.23;;;;;;;;;;5010081;28;39701;-75
2021/05/13 02:19:59;;;;;;;30.10;15.97;;;;;;;;;;5009341;28;38634;-75
2021/05/13 02:22:25;;;;;;;26.77;14.67;;;;;;;;;;4989734;28;40087;-76
2021/05/13 02:24:51;;;;;;;26.67;15.80;;;;;;;;;;4991397;28;38889;-75
2021/05/13 02:27:18;;;;;;;30.20;17.80;;;;;;;;;;5008500;28;39092;-75
2021/05/13 02:29:44;;;;;;;26.07;16.03;;;;;;;;;;4988085;28;38165;-76
2021/05/13 02:32:10;;;;;;;34.87;18.93;;;;;;;;;;4989286;28;37005;-75
2021/05/13 02:34:37;;;;;;;28.47;15.17;;;;;;;;;;4990869;28;38432;-76
2021/05/13 02:37:03;;;;;;;31.83;17.43;;;;;;;;;;5006372;28;39508;-75
2021/05/13 02:39:29;;;;;;;36.10;19.73;;;;;;;;;;5008839;28;38407;-76
2021/05/13 02:41:56;;;;;;;38.17;19.03;;;;;;;;;;4990483;28;38859;-75
2021/05/13 02:44:22;;;;;;;23.63;14.83;;;;;;;;;;5003594;28;36024;-75
2021/05/13 02:46:49;;;;;;;34.23;19.27;;;;;;;;;;4997246;28;20085;-76
2021/05/13 02:49:16;;;;;;;29.27;18.70;;;;;;;;;;5009001;28;38561;-76
2021/05/13 02:51:42;;;;;;;28.30;18.47;;;;;;;;;;5007548;28;38401;-76
2021/05/13 02:54:08;;;;;;;30.37;17.77;;;;;;;;;;5014266;28;37347;-76
2021/05/13 02:56:35;;;;;;;30.87;19.73;;;;;;;;;;5015067;28;39064;-76
2021/05/13 02:59:01;;;;;;;26.90;16.33;;;;;;;;;;4998611;28;38820;-76
2021/05/13 03:01:30;;;;;;;28.73;18.63;;;;;;;;;;5016164;28;38690;-75
2021/05/13 03:03:58;;;;;;;27.00;18.63;;;;;;;;;;4998757;28;37371;-76
2021/05/13 03:06:25;;;;;;;32.17;20.70;;;;;;;;;;5014636;28;39121;-76
2021/05/13 03:08:56;;;;;;;28.87;19.13;;;;;;;;;;4996401;28;40243;-76
2021/05/13 03:11:23;;;;;;;33.53;20.60;;;;;;;;;;5015488;28;38607;-76
2021/05/13 03:13:53;;;;;;;24.20;17.37;;;;;;;;;;5013460;28;36000;-76
2021/05/13 03:16:19;;;;;;;34.80;21.90;;;;;;;;;;5011844;28;40168;-76
2021/05/13 03:18:50;;;;;;;36.10;21.33;;;;;;;;;;5009954;28;39380;-76
2021/05/13 03:24:10;;;;;;;37.37;22.70;;;;;;;;;;5011538;28;38671;-76
2021/05/13 03:29:03;;;;;;;40.17;22.47;;;;;;;;;;5011448;28;38459;-76
2021/05/13 03:31:30;;;;;;;41.93;26.30;;;;;;;;;;5008383;28;38677;-75
2021/05/13 03:33:56;;;;;;;42.43;26.70;;;;;;;;;;5007949;28;37800;-76
2021/05/13 03:36:22;;;;;;;39.67;27.63;;;;;;;;;;5009925;28;39873;-76
2021/05/13 03:38:49;;;;;;;34.80;24.13;;;;;;;;;;5008026;28;39507;-76
2021/05/13 03:41:15;;;;;;;42.10;27.70;;;;;;;;;;5008715;28;38439;-76
2021/05/13 03:43:42;;;;;;;44.43;29.20;;;;;;;;;;5015810;28;37562;-76
2021/05/13 03:46:08;;;;;;;34.00;23.10;;;;;;;;;;4988848;28;39271;-76
2021/05/13 03:48:34;;;;;;;44.30;27.17;;;;;;;;;;5007890;28;38754;-75
2021/05/13 03:51:01;;;;;;;46.10;30.43;;;;;;;;;;4989494;28;38524;-76
2021/05/13 03:53:27;;;;;;;38.93;26.37;;;;;;;;;;5004665;28;46714;-76
2021/05/13 03:55:54;;;;;;;32.13;23.80;;;;;;;;;;4989578;28;39420;-76
2021/05/13 03:58:22;;;;;;;36.80;26.87;;;;;;;;;;5007476;28;39187;-76
2021/05/13 04:03:21;;;;;;;54.83;32.42;;;;;;;;;;5007321;28;37203;-75
2021/05/13 04:05:48;;;;;;;42.93;30.07;;;;;;;;;;5007190;28;40014;-76
2021/05/13 04:08:14;;;;;;;42.77;29.63;;;;;;;;;;4988154;28;39103;-76
2021/05/13 04:10:41;;;;;;;42.93;27.33;;;;;;;;;;4989777;28;38525;-76
2021/05/13 04:13:10;;;;;;;55.60;35.27;;;;;;;;;;5008102;28;37262;-76
2021/05/13 04:15:37;;;;;;;37.03;27.87;;;;;;;;;;5007196;28;38779;-76
2021/05/13 04:18:03;;;;;;;48.30;36.13;;;;;;;;;;4990966;28;38577;-76
2021/05/13 04:20:29;;;;;;;41.70;30.27;;;;;;;;;;4989184;28;47042;-76
2021/05/13 04:22:56;;;;;;;46.10;34.00;;;;;;;;;;4989657;28;37372;-76
2021/05/13 04:25:22;;;;;;;47.10;33.60;;;;;;;;;;4989814;28;39244;-76
2021/05/13 04:27:48;;;;;;;51.43;34.83;;;;;;;;;;5008415;28;38657;-76
2021/05/13 04:30:15;;;;;;;40.47;29.20;;;;;;;;;;4987489;28;36975;-75
2021/05/13 04:32:42;;;;;;;40.70;26.80;;;;;;;;;;5006263;28;37167;-75
2021/05/13 04:35:09;;;;;;;51.40;34.73;;;;;;;;;;5005268;28;39142;-75
2021/05/13 04:37:35;;;;;;;45.80;32.80;;;;;;;;;;5007034;28;38787;-75
2021/05/13 04:40:03;;;;;;;43.23;29.03;;;;;;;;;;5006590;28;38249;-75
2021/05/13 04:42:29;;;;;;;57.67;39.33;;;;;;;;;;4988551;28;36355;-76
2021/05/13 04:44:57;;;;;;;56.70;39.83;;;;;;;;;;5000044;28;37421;-75
2021/05/13 04:47:34;;;;;;;49.20;34.90;;;;;;;;;;4988517;28;39447;-75
2021/05/13 04:50:01;;;;;;;46.60;33.77;;;;;;;;;;5009019;28;38337;-75
2021/05/13 04:52:28;;;;;;;59.60;41.50;;;;;;;;;;5009141;28;38696;-75
2021/05/13 04:54:56;;;;;;;69.00;44.30;;;;;;;;;;4992093;28;40227;-75
2021/05/13 04:57:22;;;;;;;48.77;31.53;;;;;;;;;;4990156;28;39519;-75
2021/05/13 04:59:49;;;;;;;39.37;31.03;;;;;;;;;;5010266;28;38447;-75
2021/05/13 05:02:15;;;;;;;49.07;33.87;;;;;;;;;;4991005;28;37481;-74
2021/05/13 05:04:42;;;;;;;47.40;32.13;;;;;;;;;;5009165;28;38867;-75
2021/05/13 05:07:09;;;;;;;40.93;31.00;;;;;;;;;;4990797;28;39290;-75
2021/05/13 05:09:36;;;;;;;59.90;40.70;;;;;;;;;;4987916;28;38674;-75
2021/05/13 05:12:02;;;;;;;56.53;39.10;;;;;;;;;;4971741;28;38722;-75
2021/05/13 05:14:28;;;;;;;61.03;36.93;;;;;;;;;;4975832;28;39603;-75
2021/05/13 05:16:55;;;;;;;48.47;33.23;;;;;;;;;;4975701;28;38926;-75
2021/05/13 05:19:21;;;;;;;46.20;34.60;;;;;;;;;;4973672;28;40241;-75
2021/05/13 05:21:47;;;;;;;47.30;34.03;;;;;;;;;;4973807;28;37885;-75
2021/05/13 05:24:14;;;;;;;46.70;34.10;;;;;;;;;;5002136;28;40254;-75
2021/05/13 05:26:40;;;;;;;42.70;31.20;;;;;;;;;;5001342;28;39044;-75
2021/05/13 05:29:07;;;;;;;45.30;31.63;;;;;;;;;;5018253;28;38161;-75
2021/05/13 05:31:33;;;;;;;40.43;30.07;;;;;;;;;;5010783;28;38002;-75
2021/05/13 05:34:00;;;;;;;47.25;33.08;;;;;;;;;;5010365;28;39511;-75
2021/05/13 05:36:28;;;;;;;45.35;29.83;;;;;;;;;;5009344;28;38622;-75
2021/05/13 05:38:55;;;;;;;38.38;30.23;;;;;;;;;;5008399;28;39938;-75
2021/05/13 05:41:22;;;;;;;41.35;28.58;;;;;;;;;;5009879;28;37083;-75
2021/05/13 05:43:49;;;;;;;44.08;30.52;;;;;;;;;;5011112;28;40807;-75
2021/05/13 05:46:15;;;;;;;38.75;28.02;;;;;;;;;;4990254;28;40053;-76
2021/05/13 05:48:41;;;;;;;38.28;29.48;;;;;;;;;;4992332;28;38836;-75
2021/05/13 05:51:08;;;;;;;35.92;27.70;;;;;;;;;;5008972;28;36988;-75
2021/05/13 05:53:34;;;;;;;43.83;28.02;;;;;;;;;;4979637;28;40717;-75
2021/05/13 05:56:01;;;;;;;35.22;24.40;;;;;;;;;;4989857;28;38685;-75
2021/05/13 05:58:27;;;;;;;33.63;27.52;;;;;;;;;;4972211;28;47143;-75
2021/05/13 06:00:53;;;;;;;38.70;25.20;;;;;;;;;;4995750;28;37966;-75
2021/05/13 06:03:20;;;;;;;28.67;24.92;;;;;;;;;;4991761;28;37681;-75
2021/05/13 06:05:47;;;;;;;31.98;22.25;;;;;;;;;;4991478;28;38925;-76
2021/05/13 06:08:13;;;;;;;33.03;25.15;;;;;;;;;;4990617;28;38533;-75
2021/05/13 06:10:40;;;;;;;31.83;22.45;;;;;;;;;;5010179;28;36988;-76
2021/05/13 06:13:07;;;;;;;34.35;22.45;;;;;;;;;;4991116;28;39426;-75
2021/05/13 06:15:35;;;;;;;33.22;25.85;;;;;;;;;;4990118;28;39231;-75
2021/05/13 06:18:01;;;;;;;31.02;22.73;;;;;;;;;;5009672;28;38039;-75
2021/05/13 06:20:29;;;;;;;31.77;22.55;;;;;;;;;;5007921;28;37859;-74
2021/05/13 06:22:56;;;;;;;34.80;23.50;;;;;;;;;;5008938;28;40018;-75
2021/05/13 06:25:23;;;;;;;31.70;24.45;;;;;;;;;;5009022;28;38900;-75
2021/05/13 06:27:50;;;;;;;30.63;23.05;;;;;;;;;;4990713;28;38859;-75
2021/05/13 06:30:17;;;;;;;29.98;22.00;;;;;;;;;;5008725;28;38169;-76
2021/05/13 06:32:45;;;;;;;26.70;21.88;;;;;;;;;;5008583;28;38986;-75
2021/05/13 06:35:11;;;;;;;30.20;23.23;;;;;;;;;;4989795;28;39782;-76
2021/05/13 06:37:38;;;;;;;27.17;21.00;;;;;;;;;;4991160;28;38855;-76
2021/05/13 06:40:05;;;;;;;26.02;20.08;;;;;;;;;;5008817;28;38269;-75
2021/05/13 06:42:32;;;;;;;25.05;20.17;;;;;;;;;;5002528;28;48909;-75
2021/05/13 06:44:58;;;;;;;27.70;21.38;;;;;;;;;;5011802;28;38358;-75
2021/05/13 06:47:25;;;;;;;29.23;20.35;;;;;;;;;;5008606;28;38423;-76
2021/05/13 06:49:51;;;;;;;26.33;19.35;;;;;;;;;;4991481;28;36199;-75
2021/05/13 06:52:17;;;;;;;23.27;18.92;;;;;;;;;;5008692;28;40592;-75
2021/05/13 06:54:44;;;;;;;23.63;19.45;;;;;;;;;;5009046;28;38760;-75
2021/05/13 06:57:11;;;;;;;22.92;17.42;;;;;;;;;;4990017;28;38866;-75
2021/05/13 06:59:39;;;;;;;24.83;17.65;;;;;;;;;;5009875;28;37585;-75
2021/05/13 07:02:05;;;;;;;24.45;18.65;;;;;;;;;;4989544;28;39782;-74
2021/05/13 07:04:32;;;;;;;22.65;18.88;;;;;;;;;;5008898;28;39519;-74
2021/05/13 07:06:58;;;;;;;22.40;18.05;;;;;;;;;;4990616;28;38754;-75
2021/05/13 07:09:25;;;;;;;19.27;17.15;;;;;;;;;;5008787;28;38172;-75
2021/05/13 07:11:51;;;;;;;23.33;17.70;;;;;;;;;;4986601;28;39273;-75
2021/05/13 07:14:17;;;;;;;24.40;17.60;;;;;;;;;;4989537;28;38838;-75
2021/05/13 07:16:44;;;;;;;23.15;16.27;;;;;;;;;;5007506;28;38197;-75
2021/05/13 07:19:10;;;;;;;23.67;16.80;;;;;;;;;;4990860;28;38277;-75
2021/05/13 07:21:37;;;;;;;23.52;15.82;;;;;;;;;;4991158;28;39250;-75
2021/05/13 07:24:04;;;;;;;17.23;14.80;;;;;;;;;;4991347;28;38326;-75
2021/05/13 07:26:30;;;;;;;20.08;15.00;;;;;;;;;;5012865;28;38586;-75
2021/05/13 07:28:56;;;;;;;21.05;15.57;;;;;;;;;;5012241;28;37259;-75
2021/05/13 07:31:23;;;;;;;20.23;16.45;;;;;;;;;;5007531;28;39657;-75
2021/05/13 07:33:50;;;;;;;16.13;14.20;;;;;;;;;;5007715;28;39546;-74
2021/05/13 07:36:17;;;;;;;22.17;14.40;;;;;;;;;;5008096;28;38415;-75
2021/05/13 07:38:44;;;;;;;17.00;14.13;;;;;;;;;;5009818;28;37708;-75
2021/05/13 07:41:10;;;;;;;18.60;15.15;;;;;;;;;;5010756;28;38890;-75
2021/05/13 07:43:37;;;;;;;18.88;15.57;;;;;;;;;;5012140;28;38291;-75
2021/05/13 07:46:04;;;;;;;17.02;13.52;;;;;;;;;;4995990;28;38757;-76
2021/05/13 07:48:32;;;;;;;17.25;14.02;;;;;;;;;;4975947;28;38977;-75
2021/05/13 07:50:58;;;;;;;18.83;14.98;;;;;;;;;;4990263;28;40505;-76
2021/05/13 07:53:25;;;;;;;15.23;13.60;;;;;;;;;;4984256;28;38629;-76
2021/05/13 07:55:52;;;;;;;15.27;13.18;;;;;;;;;;4993273;28;39635;-76
2021/05/13 07:58:19;;;;;;;15.45;12.77;;;;;;;;;;4993869;28;37703;-76
2021/05/13 08:00:45;;;;;;;16.40;12.77;;;;;;;;;;4990717;28;39608;-75
2021/05/13 08:03:12;;;;;;;14.75;13.07;;;;;;;;;;4992275;28;38608;-76
2021/05/13 08:05:38;;;;;;;13.07;10.80;;;;;;;;;;4991213;28;39031;-76
2021/05/13 08:08:04;;;;;;;13.98;11.18;;;;;;;;;;5008408;28;36864;-76
2021/05/13 08:10:31;;;;;;;16.67;13.80;;;;;;;;;;4990666;28;39563;-75
2021/05/13 08:12:57;;;;;;;16.58;12.75;;;;;;;;;;4991213;28;39727;-76
2021/05/13 08:15:24;;;;;;;13.07;11.75;;;;;;;;;;4990574;28;38736;-76
2021/05/13 08:17:50;;;;;;;13.50;11.98;;;;;;;;;;5009311;28;36656;-76
2021/05/13 08:20:17;;;;;;;14.50;11.07;;;;;;;;;;5008331;28;39059;-76
2021/05/13 08:22:45;;;;;;;14.18;11.98;;;;;;;;;;5007774;28;38918;-76
2021/05/13 08:25:11;;;;;;;15.35;13.05;;;;;;;;;;5010255;28;38281;-76
2021/05/13 08:27:38;;;;;;;13.32;11.93;;;;;;;;;;5012454;28;38295;-76
2021/05/13 08:30:06;;;;;;;16.58;11.82;;;;;;;;;;5009517;28;40483;-76
2021/05/13 08:32:32;;;;;;;13.68;10.90;;;;;;;;;;5009339;28;39328;-76
2021/05/13 08:34:58;;;;;;;16.13;11.23;;;;;;;;;;5010870;28;39256;-76
2021/05/13 08:37:25;;;;;;;12.63;10.60;;;;;;;;;;4992035;28;37874;-76
2021/05/13 08:39:51;;;;;;;17.30;12.43;;;;;;;;;;5010155;28;38982;-75
2021/05/13 08:42:18;;;;;;;11.15;9.65;;;;;;;;;;4991108;28;38959;-76
2021/05/13 08:44:45;;;;;;;12.85;10.15;;;;;;;;;;5009608;28;38859;-77
2021/05/13 08:47:12;;;;;;;14.05;9.60;;;;;;;;;;5029101;28;37709;-76
2021/05/13 08:49:39;;;;;;;10.95;8.63;;;;;;;;;;5030211;28;38849;-76
2021/05/13 08:52:07;;;;;;;8.73;7.60;;;;;;;;;;5011837;28;38661;-76
2021/05/13 08:54:34;;;;;;;9.32;7.78;;;;;;;;;;4992204;28;38765;-76
2021/05/13 08:57:00;;;;;;;10.73;8.15;;;;;;;;;;4972321;28;37603;-76
2021/05/13 08:59:28;;;;;;;13.00;8.65;;;;;;;;;;4990728;28;47869;-76
2021/05/13 09:01:55;;;;;;;10.85;9.40;;;;;;;;;;4972816;28;40396;-76
2021/05/13 09:04:22;;;;;;;9.85;6.47;;;;;;;;;;4990497;28;38225;-76
2021/05/13 09:06:48;;;;;;;8.57;6.63;;;;;;;;;;4972365;28;37484;-75
2021/05/13 09:09:19;;;;;;;8.52;6.07;;;;;;;;;;4989970;28;39865;-77
2021/05/13 09:11:53;;;;;;;9.55;7.20;;;;;;;;;;5009623;28;38678;-75
2021/05/13 09:14:21;;;;;;;9.10;7.25;;;;;;;;;;4991872;28;39621;-76
2021/05/13 09:16:49;;;;;;;10.20;6.65;;;;;;;;;;5009370;28;37067;-76
2021/05/13 09:19:20;;;;;;;9.50;6.88;;;;;;;;;;5010268;28;39040;-77
2021/05/13 09:21:57;;;;;;;11.35;6.50;;;;;;;;;;5009588;28;38211;-76
2021/05/13 09:24:42;;;;;;;7.75;5.13;;;;;;;;;;5009410;28;38466;-76
2021/05/13 09:27:21;;;;;;;7.32;5.03;;;;;;;;;;5011759;28;37197;-76
2021/05/13 09:30:00;;;;;;;6.45;5.10;;;;;;;;;;5011944;28;39985;-76
2021/05/13 09:32:26;;;;;;;10.70;5.43;;;;;;;;;;4990954;28;39647;-76
2021/05/13 09:34:53;;;;;;;10.55;4.95;;;;;;;;;;5010793;28;38082;-76
2021/05/13 09:37:19;;;;;;;10.07;4.72;;;;;;;;;;5006938;28;36656;-77
2021/05/13 09:39:50;;;;;;;9.30;4.95;;;;;;;;;;4991317;28;38245;-76
2021/05/13 09:42:17;;;;;;;11.77;6.18;;;;;;;;;;5007809;28;38674;-75
2021/05/13 09:44:45;;;;;;;7.70;5.18;;;;;;;;;;5008771;28;38551;-76
2021/05/13 09:47:29;;;;;;;8.60;5.43;;;;;;;;;;5011066;28;37305;-77
2021/05/13 09:49:59;;;;;;;7.90;5.47;;;;;;;;;;5010016;28;38930;-76
2021/05/13 09:52:46;;;;;;;7.13;4.70;;;;;;;;;;4989794;28;39212;-76
2021/05/13 09:55:17;;;;;;;10.70;5.60;;;;;;;;;;4991535;28;37023;-77
2021/05/13 09:57:50;;;;;;;7.88;5.72;;;;;;;;;;4992613;28;35927;-76
2021/05/13 10:00:30;;;;;;;9.55;5.50;;;;;;;;;;5008567;28;39171;-77
2021/05/13 10:02:58;;;;;;;7.28;4.07;;;;;;;;;;4993099;28;38718;-76
2021/05/13 10:05:24;;;;;;;8.50;5.35;;;;;;;;;;4995436;28;38516;-76
2021/05/13 10:07:52;;;;;;;8.13;4.75;;;;;;;;;;4996787;28;35822;-75
2021/05/13 10:10:18;;;;;;;7.82;4.90;;;;;;;;;;5014593;28;39030;-76
2021/05/13 10:12:46;;;;;;;8.98;4.47;;;;;;;;;;4996271;28;39466;-76
2021/05/13 10:15:13;;;;;;;5.00;4.00;;;;;;;;;;5012413;28;38654;-76
2021/05/13 10:17:46;;;;;;;7.72;4.60;;;;;;;;;;4993515;28;38735;-76
2021/05/13 10:20:14;;;;;;;8.90;5.40;;;;;;;;;;4990513;28;39365;-76
2021/05/13 10:22:42;;;;;;;5.15;4.40;;;;;;;;;;5008642;28;39514;-76
2021/05/13 10:25:19;;;;;;;6.30;4.53;;;;;;;;;;4991373;28;39579;-76
2021/05/13 10:27:49;;;;;;;7.38;5.28;;;;;;;;;;4996203;28;37167;-76
2021/05/13 10:30:16;;;;;;;7.05;4.65;;;;;;;;;;5010271;28;39303;-76
2021/05/13 10:32:42;;;;;;;8.25;4.10;;;;;;;;;;4988314;28;40259;-76
2021/05/13 10:35:12;;;;;;;7.07;3.92;;;;;;;;;;4970707;28;39895;-77
2021/05/13 10:37:40;;;;;;;6.78;4.43;;;;;;;;;;4989927;28;37164;-76
2021/05/13 10:40:14;;;;;;;8.80;3.50;;;;;;;;;;4971668;28;39362;-77
2021/05/13 10:42:41;;;;;;;6.43;3.10;;;;;;;;;;5003085;28;39320;-77
2021/05/13 10:45:26;;;;;;;8.10;3.30;;;;;;;;;;5002541;28;38181;-76
2021/05/13 10:48:11;;;;;;;8.05;3.85;;;;;;;;;;4989513;28;37227;-77
2021/05/13 10:50:45;;;;;;;7.63;3.65;;;;;;;;;;4990830;28;47258;-77
2021/05/13 10:53:30;;;;;;;6.78;4.05;;;;;;;;;;5009299;28;39301;-77
2021/05/13 10:56:28;;;;;;;6.15;3.72;;;;;;;;;;5008214;28;38136;-76
2021/05/13 10:58:58;;;;;;;6.35;3.78;;;;;;;;;;4975398;28;47476;-76
2021/05/13 11:01:35;;;;;;;6.88;2.95;;;;;;;;;;4990916;28;40767;-76
2021/05/13 11:04:24;;;;;;;8.45;4.03;;;;;;;;;;5009506;28;39789;-76
2021/05/13 11:06:56;;;;;;;7.78;3.50;;;;;;;;;;4988372;28;40416;-76
2021/05/13 11:09:47;;;;;;;10.85;3.80;;;;;;;;;;4988992;28;37752;-77
2021/05/13 11:12:14;;;;;;;5.53;2.75;;;;;;;;;;4986981;28;39691;-77
2021/05/13 11:18:01;;;;;;;7.63;3.28;;;;;;;;;;4987578;28;50286;-76
2021/05/13 11:20:30;;;;;;;7.70;3.13;;;;;;;;;;4993648;28;36935;-76
2021/05/13 11:22:58;;;;;;;5.80;3.53;;;;;;;;;;4976120;28;39177;-76
2021/05/13 11:25:35;;;;;;;7.00;3.22;;;;;;;;;;4994649;28;39030;-77
2021/05/13 11:28:01;;;;;;;9.65;3.40;;;;;;;;;;5016325;28;38489;-76
2021/05/13 11:30:28;;;;;;;4.68;2.35;;;;;;;;;;5014060;28;46820;-78
2021/05/13 11:32:55;;;;;;;7.28;3.08;;;;;;;;;;5007033;28;37882;-76
2021/05/13 11:35:22;;;;;;;8.10;3.15;;;;;;;;;;4993636;28;39075;-76
2021/05/13 11:37:54;;;;;;;5.90;2.85;;;;;;;;;;4994534;28;39126;-77
2021/05/13 11:40:25;;;;;;;6.53;2.78;;;;;;;;;;4996870;28;36712;-77
2021/05/13 11:43:11;;;;;;;5.90;2.40;;;;;;;;;;5015010;28;38967;-77
2021/05/13 11:45:39;;;;;;;4.55;2.30;;;;;;;;;;5023098;28;47232;-78
2021/05/13 11:48:26;;;;;;;5.40;2.40;;;;;;;;;;4999697;28;39128;-78
2021/05/13 11:50:54;;;;;;;5.35;2.53;;;;;;;;;;5015435;28;35739;-77
2021/05/13 11:53:21;;;;;;;3.88;1.63;;;;;;;;;;5007403;28;38601;-77
2021/05/13 11:55:48;;;;;;;6.25;2.22;;;;;;;;;;4988125;28;39360;-77
2021/05/13 11:58:16;;;;;;;7.13;2.65;;;;;;;;;;4986956;28;39586;-77
2021/05/13 12:00:42;;;;;;;5.22;2.05;;;;;;;;;;5008837;28;37973;-77
2021/05/13 12:03:09;;;;;;;4.20;2.20;;;;;;;;;;4988284;28;39411;-77
2021/05/13 12:05:45;;;;;;;5.90;2.17;;;;;;;;;;4971678;28;39047;-78
2021/05/13 12:08:14;;;;;;;5.32;2.40;;;;;;;;;;4992490;28;39260;-77
2021/05/13 12:10:41;;;;;;;5.55;2.47;;;;;;;;;;4978393;28;37892;-77
2021/05/13 12:13:07;;;;;;;5.43;2.70;;;;;;;;;;4996769;28;39499;-77
2021/05/13 12:15:34;;;;;;;5.05;2.60;;;;;;;;;;5011728;28;39647;-77
2021/05/13 12:18:00;;;;;;;4.55;1.95;;;;;;;;;;5019658;28;38995;-77
2021/05/13 12:20:27;;;;;;;3.33;1.40;;;;;;;;;;4998625;28;35899;-77
2021/05/13 12:22:54;;;;;;;3.83;1.45;;;;;;;;;;4999420;28;40846;-77
2021/05/13 12:25:20;;;;;;;5.95;1.70;;;;;;;;;;5017606;28;38874;-77
2021/05/13 12:27:47;;;;;;;6.05;2.10;;;;;;;;;;5013828;28;38390;-77
2021/05/13 12:30:13;;;;;;;4.85;2.05;;;;;;;;;;4993779;28;36589;-77
2021/05/13 12:32:42;;;;;;;4.57;1.58;;;;;;;;;;5013370;28;39114;-77
2021/05/13 12:35:22;;;;;;;7.38;2.00;;;;;;;;;;5017539;28;38721;-76
2021/05/13 12:37:48;;;;;;;5.00;2.28;;;;;;;;;;5002777;28;38699;-76
2021/05/13 12:40:15;;;;;;;3.10;1.40;;;;;;;;;;5000421;28;37590;-77
2021/05/13 12:42:42;;;;;;;4.78;1.30;;;;;;;;;;5002591;28;37338;-77
2021/05/13 12:45:12;;;;;;;4.63;1.65;;;;;;;;;;4980669;28;39269;-76
2021/05/13 12:47:38;;;;;;;6.93;1.77;;;;;;;;;;4979582;28;38487;-77
2021/05/13 12:50:05;;;;;;;4.20;1.42;;;;;;;;;;5015110;28;36880;-77
2021/05/13 12:52:31;;;;;;;2.75;1.23;;;;;;;;;;4996332;28;47262;-76
2021/05/13 12:55:11;;;;;;;4.07;1.60;;;;;;;;;;4994656;28;38553;-77
2021/05/13 12:57:38;;;;;;;6.45;1.77;;;;;;;;;;4971184;28;47119;-78
2021/05/13 13:00:05;;;;;;;3.97;1.33;;;;;;;;;;4974860;28;38795;-77
2021/05/13 13:02:31;;;;;;;4.00;1.70;;;;;;;;;;4990198;28;38664;-77
2021/05/13 13:04:59;;;;;;;3.30;1.50;;;;;;;;;;4990416;28;38953;-77
2021/05/13 13:07:35;;;;;;;4.13;1.52;;;;;;;;;;5008855;28;38716;-77
2021/05/13 13:10:20;;;;;;;4.00;1.42;;;;;;;;;;4991068;28;38315;-77
2021/05/13 13:12:48;;;;;;;6.28;2.35;;;;;;;;;;5004068;28;48864;-77
2021/05/13 13:15:42;;;;;;;5.65;1.90;;;;;;;;;;4989362;28;38532;-78
2021/05/13 13:18:09;;;;;;;5.10;1.55;;;;;;;;;;5010049;28;39726;-78
2021/05/13 13:20:37;;;;;;;7.00;2.28;;;;;;;;;;5009962;28;38225;-77
2021/05/13 13:23:22;;;;;;;6.25;1.90;;;;;;;;;;5008641;28;39557;-77
2021/05/13 13:25:49;;;;;;;5.88;2.17;;;;;;;;;;4992061;28;39219;-77
2021/05/13 13:28:16;;;;;;;5.50;2.22;;;;;;;;;;4991217;28;38649;-78
2021/05/13 13:30:43;;;;;;;8.00;2.22;;;;;;;;;;4991221;28;36119;-77
2021/05/13 13:33:13;;;;;;;4.82;2.10;;;;;;;;;;4992121;28;39326;-77
2021/05/13 13:35:41;;;;;;;4.93;2.45;;;;;;;;;;4992156;28;40129;-77
2021/05/13 13:38:09;;;;;;;6.20;2.50;;;;;;;;;;4993058;28;38385;-76
2021/05/13 13:40:35;;;;;;;6.60;2.03;;;;;;;;;;4992219;28;38589;-76
2021/05/13 13:43:02;;;;;;;6.70;2.10;;;;;;;;;;4988374;28;38076;-77
2021/05/13 13:45:28;;;;;;;6.15;2.10;;;;;;;;;;4990009;28;47009;-77
2021/05/13 13:47:55;;;;;;;4.55;2.00;;;;;;;;;;4972157;28;36906;-77
2021/05/13 13:50:21;;;;;;;6.93;2.30;;;;;;;;;;4988835;28;37407;-76
2021/05/13 13:52:47;;;;;;;4.63;2.20;;;;;;;;;;4970538;28;39295;-76
2021/05/13 13:55:14;;;;;;;5.97;2.28;;;;;;;;;;4989252;28;38912;-76
2021/05/13 13:57:41;;;;;;;7.22;2.38;;;;;;;;;;5003793;28;38184;-77
2021/05/13 14:00:07;;;;;;;6.25;2.90;;;;;;;;;;5001666;28;37458;-77
2021/05/13 14:02:36;;;;;;;10.25;2.78;;;;;;;;;;4972816;28;47381;-77
2021/05/13 14:05:02;;;;;;;8.52;2.95;;;;;;;;;;4972787;28;39435;-77
2021/05/13 14:07:28;;;;;;;4.93;3.05;;;;;;;;;;4971615;28;47419;-77
2021/05/13 14:09:55;;;;;;;6.25;2.65;;;;;;;;;;4973658;28;37162;-77
2021/05/13 14:12:21;;;;;;;8.20;3.00;;;;;;;;;;4988807;28;39356;-76
2021/05/13 14:14:51;;;;;;;6.95;2.75;;;;;;;;;;4973546;28;37951;-76
2021/05/13 14:17:20;;;;;;;6.57;2.85;;;;;;;;;;4990691;28;39335;-77
2021/05/13 14:19:47;;;;;;;5.90;2.30;;;;;;;;;;4989567;28;36908;-77
2021/05/13 14:22:14;;;;;;;7.40;2.47;;;;;;;;;;4971131;28;40304;-76
2021/05/13 14:24:40;;;;;;;4.25;2.53;;;;;;;;;;4989799;28;39672;-77
2021/05/13 14:27:07;;;;;;;7.43;2.70;;;;;;;;;;4969689;28;36796;-76
2021/05/13 14:29:33;;;;;;;7.68;2.92;;;;;;;;;;4989181;28;37729;-76
2021/05/13 14:31:59;;;;;;;6.57;2.75;;;;;;;;;;5003297;28;38399;-78
2021/05/13 14:34:26;;;;;;;4.60;2.50;;;;;;;;;;5007086;28;38753;-75
2021/05/13 14:36:53;;;;;;;6.65;2.30;;;;;;;;;;4989070;28;39160;-75
2021/05/13 14:39:19;;;;;;;5.63;2.30;;;;;;;;;;5008224;28;37772;-78
2021/05/13 14:41:45;;;;;;;6.78;2.88;;;;;;;;;;4988532;28;41188;-78
2021/05/13 14:44:12;;;;;;;8.35;3.47;;;;;;;;;;5002633;28;38784;-77
2021/05/13 14:46:38;;;;;;;4.15;2.35;;;;;;;;;;5009398;28;38532;-78
2021/05/13 14:51:51;;;;;;;5.70;2.50;;;;;;;;;;5010062;28;39299;-77